createdAt,value
2018-09-19T00:00:22.838Z,16.37
2018-09-19T00:02:51.858Z,16.34
2018-09-19T00:05:20.706Z,16.38
2018-09-19T00:07:49.773Z,16.22
2018-09-19T00:10:18.683Z,16.15
2018-09-19T00:12:47.618Z,16.06
2018-09-19T00:15:16.903Z,15.96
2018-09-19T00:17:45.908Z,15.93
2018-09-19T00:20:14.928Z,15.89
2018-09-19T00:22:44.076Z,15.93
2018-09-19T00:25:13.085Z,16.10
2018-09-19T00:27:41.982Z,16.13
2018-09-19T00:30:10.794Z,16.13
2018-09-19T00:32:39.736Z,16.24
2018-09-19T00:35:08.589Z,16.23
2018-09-19T00:37:37.533Z,16.28
2018-09-19T00:40:06.410Z,16.20
2018-09-19T00:42:35.329Z,16.25
2018-09-19T00:45:04.602Z,16.31
2018-09-19T00:47:33.362Z,16.33
2018-09-19T00:50:02.431Z,16.22
2018-09-19T00:52:31.392Z,16.23
2018-09-19T00:55:00.404Z,16.17
2018-09-19T00:57:29.376Z,16.12
2018-09-19T00:59:58.709Z,16.09
2018-09-19T01:02:27.536Z,16.02
2018-09-19T01:04:56.403Z,15.95
2018-09-19T01:07:25.544Z,15.90
2018-09-19T01:09:54.568Z,15.89
2018-09-19T01:12:23.571Z,15.85
2018-09-19T01:14:52.737Z,15.82
2018-09-19T01:17:21.847Z,15.81
2018-09-19T01:19:50.768Z,15.82
2018-09-19T01:22:20.000Z,15.79
2018-09-19T01:24:49.015Z,15.82
2018-09-19T01:27:17.839Z,15.91
2018-09-19T01:29:46.831Z,15.96
2018-09-19T01:32:15.757Z,15.96
2018-09-19T01:34:44.742Z,16.05
2018-09-19T01:37:13.786Z,16.09
2018-09-19T01:39:42.806Z,16.02
2018-09-19T01:42:11.745Z,16.00
2018-09-19T01:44:40.966Z,16.00
2018-09-19T01:47:09.751Z,15.98
2018-09-19T01:49:38.824Z,15.96
2018-09-19T01:52:08.048Z,15.97
2018-09-19T01:54:36.876Z,16.10
2018-09-19T01:57:05.866Z,16.04
2018-09-19T01:59:35.025Z,16.05
2018-09-19T02:02:04.040Z,16.18
2018-09-19T02:04:33.057Z,16.14
2018-09-19T02:07:02.235Z,16.17
2018-09-19T02:09:31.280Z,16.09
2018-09-19T02:12:00.207Z,16.02
2018-09-19T02:14:29.145Z,16.02
2018-09-19T02:16:58.169Z,16.02
2018-09-19T02:19:27.059Z,16.00
2018-09-19T02:21:56.326Z,15.99
2018-09-19T02:24:26.226Z,16.03
2018-09-19T02:26:55.132Z,15.98
2018-09-19T02:29:24.143Z,15.99
2018-09-19T02:31:53.128Z,15.95
2018-09-19T02:34:21.977Z,15.87
2018-09-19T02:36:50.992Z,15.79
2018-09-19T02:39:19.927Z,15.70
2018-09-19T02:41:48.789Z,15.67
2018-09-19T02:44:17.781Z,15.61
2018-09-19T02:46:46.582Z,15.56
2018-09-19T02:49:15.490Z,15.54
2018-09-19T02:51:44.411Z,15.54
2018-09-19T02:54:13.168Z,15.52
2018-09-19T02:56:42.152Z,15.47
2018-09-19T02:59:11.179Z,15.44
2018-09-19T03:01:40.176Z,15.39
2018-09-19T03:04:09.100Z,15.40
2018-09-19T03:06:38.271Z,15.39
2018-09-19T03:09:07.406Z,15.34
2018-09-19T03:11:36.303Z,15.30
2018-09-19T03:14:05.279Z,15.20
2018-09-19T03:16:34.244Z,15.19
2018-09-19T03:19:03.161Z,15.19
2018-09-19T03:21:32.215Z,15.22
2018-09-19T03:24:01.255Z,15.17
2018-09-19T03:26:30.376Z,15.16
2018-09-19T03:28:59.765Z,15.11
2018-09-19T03:31:28.701Z,15.14
2018-09-19T03:33:57.604Z,15.15
2018-09-19T03:36:26.723Z,15.14
2018-09-19T03:38:55.750Z,15.08
2018-09-19T03:41:24.810Z,15.00
2018-09-19T03:43:54.316Z,14.92
2018-09-19T03:46:23.228Z,14.90
2018-09-19T03:48:52.012Z,14.86
2018-09-19T03:51:21.399Z,14.85
2018-09-19T03:53:50.326Z,14.79
2018-09-19T03:56:19.245Z,14.78
2018-09-19T03:58:48.302Z,14.75
2018-09-19T04:01:17.058Z,14.78
2018-09-19T04:03:46.104Z,14.77
2018-09-19T04:06:16.332Z,14.83
2018-09-19T04:08:45.234Z,14.87
2018-09-19T04:11:14.168Z,14.82
2018-09-19T04:13:43.049Z,14.84
2018-09-19T04:16:11.853Z,14.81
2018-09-19T04:18:40.938Z,14.90
2018-09-19T04:21:09.904Z,14.93
2018-09-19T04:23:38.780Z,14.93
2018-09-19T04:26:07.781Z,15.00
2018-09-19T04:28:36.831Z,14.98
2018-09-19T04:31:05.890Z,15.00
2018-09-19T04:33:34.751Z,15.05
2018-09-19T04:36:05.412Z,15.07
2018-09-19T04:38:34.290Z,15.02
2018-09-19T04:41:03.458Z,15.03
2018-09-19T04:43:34.285Z,15.10
2018-09-19T04:46:04.404Z,15.17
2018-09-19T04:48:33.554Z,15.24
2018-09-19T04:51:02.730Z,15.32
2018-09-19T04:54:19.378Z,15.40
2018-09-19T04:56:48.527Z,15.45
2018-09-19T04:59:17.985Z,15.53
2018-09-19T05:01:47.027Z,15.61
2018-09-19T05:04:16.288Z,15.65
2018-09-19T05:06:45.142Z,15.66
2018-09-19T05:09:14.198Z,15.72
2018-09-19T05:11:43.439Z,15.80
2018-09-19T05:14:12.512Z,15.87
2018-09-19T05:16:41.510Z,15.87
2018-09-19T05:19:10.801Z,15.87
2018-09-19T05:21:39.899Z,15.87
2018-09-19T05:24:08.874Z,15.88
2018-09-19T05:26:37.931Z,15.93
2018-09-19T05:29:06.860Z,15.94
2018-09-19T05:31:35.777Z,15.98
2018-09-19T05:34:05.358Z,16.00
2018-09-19T05:36:34.222Z,15.99
2018-09-19T05:39:03.208Z,16.00
2018-09-19T05:41:31.999Z,16.05
2018-09-19T05:44:00.969Z,16.08
2018-09-19T05:46:29.899Z,16.12
2018-09-19T05:48:58.918Z,16.14
2018-09-19T05:51:29.265Z,16.15
2018-09-19T05:53:58.044Z,16.20
2018-09-19T05:56:27.241Z,16.24
2018-09-19T05:58:56.229Z,16.31
2018-09-19T06:01:25.285Z,16.41
2018-09-19T06:03:54.406Z,16.47
2018-09-19T06:06:24.727Z,16.51
2018-09-19T06:08:54.737Z,16.57
2018-09-19T06:11:26.176Z,16.62
2018-09-19T06:13:55.793Z,16.66
2018-09-19T06:16:25.157Z,16.76
2018-09-19T06:18:54.084Z,16.80
2018-09-19T06:21:23.285Z,16.89
2018-09-19T06:23:53.151Z,16.98
2018-09-19T06:26:22.049Z,17.07
2018-09-19T06:28:50.949Z,17.16
2018-09-19T06:31:19.842Z,17.23
2018-09-19T06:33:49.610Z,17.19
2018-09-19T06:36:20.501Z,17.31
2018-09-19T06:38:49.917Z,17.35
2018-09-19T06:41:18.875Z,17.42
2018-09-19T06:43:48.198Z,17.45
2018-09-19T06:46:21.066Z,17.56
2018-09-19T06:48:50.585Z,17.66
2018-09-19T06:51:19.471Z,17.77
2018-09-19T06:53:48.919Z,17.83
2018-09-19T06:56:17.917Z,18.01
2018-09-19T06:58:46.833Z,18.07
2018-09-19T07:01:15.683Z,18.18
2018-09-19T07:03:45.345Z,18.26
2018-09-19T07:06:14.208Z,18.32
2018-09-19T07:08:43.126Z,18.43
2018-09-19T07:11:12.278Z,18.49
2018-09-19T07:13:41.108Z,18.54
2018-09-19T07:16:09.949Z,18.72
2018-09-19T07:18:39.760Z,18.95
2018-09-19T07:21:08.619Z,19.12
2018-09-19T07:23:37.569Z,19.19
2018-09-19T07:26:06.997Z,19.17
2018-09-19T07:28:35.864Z,19.26
2018-09-19T07:31:04.877Z,19.36
2018-09-19T07:33:34.437Z,19.57
2018-09-19T07:36:03.417Z,19.68
2018-09-19T07:38:32.194Z,19.55
2018-09-19T07:41:01.574Z,19.54
2018-09-19T07:43:30.453Z,19.70
2018-09-19T07:45:59.303Z,19.77
2018-09-19T07:48:29.299Z,19.93
2018-09-19T07:50:58.098Z,20.04
2018-09-19T07:53:41.820Z,20.23
2018-09-19T07:58:44.667Z,20.49
2018-09-19T08:01:13.574Z,20.47
2018-09-19T08:03:42.467Z,20.55
2018-09-19T08:06:11.337Z,20.49
2018-09-19T08:08:40.229Z,20.67
2018-09-19T08:11:09.094Z,20.87
2018-09-19T08:13:38.306Z,21.05
2018-09-19T08:16:07.095Z,20.92
2018-09-19T08:18:36.014Z,20.89
2018-09-19T08:21:04.873Z,20.78
2018-09-19T08:23:33.903Z,20.99
2018-09-19T08:26:02.844Z,21.03
2018-09-19T08:28:31.682Z,21.02
2018-09-19T08:31:00.601Z,21.18
2018-09-19T08:33:29.522Z,21.12
2018-09-19T08:35:58.863Z,21.07
2018-09-19T08:38:27.810Z,20.79
2018-09-19T08:40:56.723Z,21.11
2018-09-19T08:43:26.309Z,21.38
2018-09-19T08:45:55.169Z,21.38
2018-09-19T08:48:24.028Z,21.54
2018-09-19T08:50:53.162Z,21.47
2018-09-19T08:53:21.960Z,21.47
2018-09-19T08:55:50.800Z,21.64
2018-09-19T08:58:20.025Z,21.69
2018-09-19T09:00:48.913Z,21.94
2018-09-19T09:03:17.691Z,22.20
2018-09-19T09:05:46.635Z,22.05
2018-09-19T09:08:15.412Z,22.26
2018-09-19T09:10:44.342Z,22.36
2018-09-19T09:13:13.354Z,22.41
2018-09-19T09:15:42.330Z,22.29
2018-09-19T09:18:11.260Z,22.09
2018-09-19T09:20:40.553Z,21.97
2018-09-19T09:23:10.682Z,22.13
2018-09-19T09:25:43.596Z,22.17
2018-09-19T09:28:12.521Z,22.03
2018-09-19T09:30:41.358Z,22.30
2018-09-19T09:33:10.557Z,22.39
2018-09-19T09:35:39.388Z,22.36
2018-09-19T09:38:08.359Z,22.52
2018-09-19T09:40:38.422Z,22.53
2018-09-19T09:43:07.353Z,22.67
2018-09-19T09:45:36.279Z,22.74
2018-09-19T09:48:05.184Z,22.90
2018-09-19T09:50:34.289Z,23.00
2018-09-19T09:53:03.288Z,22.94
2018-09-19T09:55:32.515Z,23.00
2018-09-19T09:58:15.094Z,22.88
2018-09-19T10:00:44.228Z,23.17
2018-09-19T10:03:13.740Z,23.16
2018-09-19T10:05:42.770Z,23.40
2018-09-19T10:08:12.208Z,23.57
2018-09-19T10:10:41.084Z,23.58
2018-09-19T10:13:09.928Z,23.62
2018-09-19T10:15:39.554Z,23.64
2018-09-19T10:18:08.757Z,23.54
2018-09-19T10:20:37.826Z,23.30
2018-09-19T10:23:10.656Z,23.31
2018-09-19T10:25:39.668Z,23.36
2018-09-19T10:28:08.607Z,23.24
2018-09-19T10:30:39.163Z,23.25
2018-09-19T10:33:08.119Z,23.36
2018-09-19T10:35:37.255Z,23.34
2018-09-19T10:38:06.397Z,23.59
2018-09-19T10:40:41.933Z,23.68
2018-09-19T10:43:11.198Z,23.80
2018-09-19T10:45:40.066Z,24.05
2018-09-19T10:48:09.033Z,23.53
2018-09-19T10:50:38.256Z,23.49
2018-09-19T10:53:10.981Z,23.56
2018-09-19T10:55:44.904Z,23.65
2018-09-19T10:58:14.054Z,23.75
2018-09-19T11:00:42.993Z,23.71
2018-09-19T11:03:12.517Z,23.88
2018-09-19T11:05:41.502Z,23.91
2018-09-19T11:08:10.534Z,24.07
2018-09-19T11:10:39.728Z,24.20
2018-09-19T11:13:08.726Z,24.28
2018-09-19T11:15:51.294Z,24.26
2018-09-19T11:18:20.207Z,24.41
2018-09-19T11:20:49.035Z,24.53
2018-09-19T11:23:18.341Z,24.56
2018-09-19T11:25:47.294Z,24.12
2018-09-19T11:28:17.272Z,24.15
2018-09-19T11:30:46.459Z,24.29
2018-09-19T11:33:15.328Z,24.41
2018-09-19T11:35:44.373Z,24.60
2018-09-19T11:38:13.916Z,24.55
2018-09-19T11:40:44.636Z,24.54
2018-09-19T11:43:17.271Z,24.59
2018-09-19T11:45:47.331Z,24.68
2018-09-19T11:48:16.648Z,24.58
2018-09-19T11:50:46.470Z,24.72
2018-09-19T11:53:24.969Z,24.76
2018-09-19T11:55:54.136Z,24.60
2018-09-19T11:58:23.249Z,24.53
2018-09-19T12:00:52.280Z,24.70
2018-09-19T12:03:21.881Z,24.91
2018-09-19T12:05:50.957Z,24.77
2018-09-19T12:08:20.851Z,24.90
2018-09-19T12:10:49.662Z,24.99
2018-09-19T12:13:18.558Z,24.90
2018-09-19T12:15:47.513Z,24.89
2018-09-19T12:18:16.381Z,24.99
2018-09-19T12:20:45.305Z,24.95
2018-09-19T12:23:14.207Z,25.03
2018-09-19T12:25:43.004Z,25.19
2018-09-19T12:28:12.101Z,25.09
2018-09-19T12:30:42.485Z,24.85
2018-09-19T12:33:12.402Z,24.89
2018-09-19T12:35:41.465Z,25.01
2018-09-19T12:38:10.923Z,25.05
2018-09-19T12:40:40.202Z,25.16
2018-09-19T12:43:15.060Z,25.25
2018-09-19T12:45:44.185Z,25.37
2018-09-19T12:48:13.091Z,25.21
2018-09-19T12:50:41.987Z,25.00
2018-09-19T12:53:10.925Z,25.11
2018-09-19T12:55:39.748Z,25.13
2018-09-19T12:58:09.055Z,25.24
2018-09-19T13:00:38.015Z,25.05
2018-09-19T13:03:07.124Z,25.21
2018-09-19T13:05:36.229Z,25.20
2018-09-19T13:08:05.583Z,25.15
2018-09-19T13:10:34.596Z,25.27
2018-09-19T13:13:03.820Z,25.29
2018-09-19T13:15:32.701Z,25.38
2018-09-19T13:18:06.297Z,25.27
2018-09-19T13:20:35.222Z,25.35
2018-09-19T13:23:04.055Z,25.46
2018-09-19T13:25:33.007Z,25.59
2018-09-19T13:28:01.913Z,25.65
2018-09-19T13:30:30.657Z,25.72
2018-09-19T13:33:00.097Z,25.65
2018-09-19T13:35:28.866Z,25.62
2018-09-19T13:37:58.120Z,25.55
2018-09-19T13:40:27.523Z,25.59
2018-09-19T13:42:56.724Z,25.78
2018-09-19T13:45:25.693Z,25.77
2018-09-19T13:47:54.928Z,25.72
2018-09-19T13:50:39.820Z,25.62
2018-09-19T13:53:09.802Z,25.71
2018-09-19T13:55:38.738Z,25.57
2018-09-19T13:58:07.843Z,25.56
2018-09-19T14:00:36.882Z,25.63
2018-09-19T14:03:06.033Z,25.70
2018-09-19T14:05:35.017Z,25.69
2018-09-19T14:08:10.724Z,25.77
2018-09-19T14:10:40.199Z,25.67
2018-09-19T14:13:13.821Z,25.71
2018-09-19T14:15:43.649Z,25.81
2018-09-19T14:18:13.131Z,25.91
2018-09-19T14:20:43.202Z,25.79
2018-09-19T14:23:12.686Z,25.74
2018-09-19T14:25:41.781Z,25.61
2018-09-19T14:28:11.231Z,25.70
2018-09-19T14:30:41.332Z,25.65
2018-09-19T14:33:12.459Z,25.62
2018-09-19T14:35:41.273Z,25.64
2018-09-19T14:38:10.629Z,25.74
2018-09-19T14:40:40.502Z,25.77
2018-09-19T14:43:10.198Z,25.70
2018-09-19T14:45:39.182Z,25.64
2018-09-19T14:48:10.211Z,25.60
2018-09-19T14:50:43.300Z,25.53
2018-09-19T14:53:14.613Z,25.53
2018-09-19T14:55:43.573Z,25.52
2018-09-19T14:58:12.468Z,25.54
2018-09-19T15:00:41.941Z,25.48
2018-09-19T15:03:11.860Z,25.45
2018-09-19T15:05:41.814Z,25.38
2018-09-19T15:08:10.762Z,25.27
2018-09-19T15:10:39.683Z,25.25
2018-09-19T15:13:08.583Z,25.26
2018-09-19T15:15:37.650Z,25.27
2018-09-19T15:18:06.674Z,25.30
2018-09-19T15:20:35.802Z,25.33
2018-09-19T15:23:04.740Z,25.20
2018-09-19T15:25:33.576Z,25.18
2018-09-19T15:28:03.144Z,25.07
2018-09-19T15:30:32.010Z,25.02
2018-09-19T15:33:01.171Z,25.13
2018-09-19T15:35:31.448Z,25.05
2018-09-19T15:38:00.448Z,25.03
2018-09-19T15:40:29.400Z,25.01
2018-09-19T15:42:58.488Z,24.99
2018-09-19T15:45:27.299Z,25.00
2018-09-19T15:47:56.330Z,24.97
2018-09-19T15:50:26.249Z,24.91
2018-09-19T15:52:55.041Z,24.82
2018-09-19T15:55:24.037Z,24.76
2018-09-19T15:57:52.960Z,24.66
2018-09-19T16:00:22.105Z,24.64
2018-09-19T16:02:51.045Z,24.63
2018-09-19T16:05:24.358Z,24.53
2018-09-19T16:07:53.764Z,24.36
2018-09-19T16:10:22.672Z,24.33
2018-09-19T16:12:52.788Z,24.24
2018-09-19T16:15:21.609Z,24.11
2018-09-19T16:17:50.650Z,23.95
2018-09-19T16:20:19.751Z,23.83
2018-09-19T16:22:48.747Z,23.67
2018-09-19T16:25:17.537Z,23.49
2018-09-19T16:27:46.496Z,23.44
2018-09-19T16:30:15.313Z,23.30
2018-09-19T16:32:44.302Z,23.12
2018-09-19T16:35:13.569Z,22.97
2018-09-19T16:37:42.539Z,22.81
2018-09-19T16:40:11.558Z,22.66
2018-09-19T16:42:40.849Z,22.57
2018-09-19T16:46:39.276Z,22.48
2018-09-19T16:55:54.608Z,21.98
2018-09-19T16:58:23.616Z,21.86
2018-09-19T17:00:52.753Z,21.77
2018-09-19T17:03:21.780Z,21.70
2018-09-19T17:05:50.899Z,21.64
2018-09-19T17:08:19.880Z,21.55
2018-09-19T17:10:48.804Z,21.53
2018-09-19T17:13:17.664Z,21.44
2018-09-19T17:15:46.920Z,21.39
2018-09-19T17:18:16.403Z,21.33
2018-09-19T17:20:45.375Z,21.30
2018-09-19T17:23:14.387Z,21.26
2018-09-19T17:25:43.373Z,21.23
2018-09-19T17:28:12.149Z,21.19
2018-09-19T17:30:41.099Z,21.17
2018-09-19T17:33:10.462Z,21.13
2018-09-19T17:35:39.352Z,21.07
2018-09-19T17:38:08.427Z,21.01
2018-09-19T17:40:37.413Z,20.95
2018-09-19T17:43:06.477Z,20.96
2018-09-19T17:45:35.374Z,20.88
2018-09-19T17:48:04.528Z,20.85
2018-09-19T17:50:33.584Z,20.84
2018-09-19T17:53:02.538Z,20.75
2018-09-19T17:55:34.049Z,20.64
2018-09-19T17:58:02.985Z,20.53
2018-09-19T18:00:31.952Z,20.46
2018-09-19T18:03:01.497Z,20.82
2018-09-19T18:05:30.460Z,20.91
2018-09-19T18:07:59.510Z,21.02
2018-09-19T18:10:28.780Z,21.01
2018-09-19T18:12:57.705Z,20.95
2018-09-19T18:15:26.613Z,20.89
2018-09-19T18:17:56.055Z,20.83
2018-09-19T18:20:25.058Z,20.92
2018-09-19T18:22:54.016Z,20.92
2018-09-19T18:25:23.327Z,20.88
2018-09-19T18:27:52.185Z,20.80
2018-09-19T18:30:21.280Z,20.72
2018-09-19T18:32:51.355Z,20.61
2018-09-19T18:35:20.492Z,20.53
2018-09-19T18:37:49.437Z,20.54
2018-09-19T18:40:18.432Z,20.46
2018-09-19T18:42:47.397Z,20.39
2018-09-19T18:45:16.301Z,20.23
2018-09-19T18:47:45.170Z,20.23
2018-09-19T18:50:14.193Z,20.18
2018-09-19T18:52:46.477Z,20.13
2018-09-19T18:55:15.527Z,20.11
2018-09-19T18:57:44.540Z,20.08
2018-09-19T19:00:13.598Z,20.01
2018-09-19T19:02:42.603Z,19.97
2018-09-19T19:05:11.499Z,19.95
2018-09-19T19:07:40.797Z,19.85
2018-09-19T19:10:09.610Z,19.82
2018-09-19T19:12:38.659Z,19.85
2018-09-19T19:15:08.080Z,19.75
2018-09-19T19:17:36.927Z,19.75
2018-09-19T19:20:05.912Z,19.76
2018-09-19T19:22:35.323Z,19.62
2018-09-19T19:25:04.209Z,19.65
2018-09-19T19:27:32.949Z,19.58
2018-09-19T19:30:02.391Z,19.52
2018-09-19T19:32:31.210Z,19.41
2018-09-19T19:35:00.178Z,19.32
2018-09-19T19:37:29.870Z,19.22
2018-09-19T19:39:58.635Z,19.10
2018-09-19T19:42:27.651Z,19.18
2018-09-19T19:44:56.520Z,19.11
2018-09-19T19:47:25.492Z,19.11
2018-09-19T19:49:54.506Z,19.06
2018-09-19T19:52:23.425Z,19.14
2018-09-19T19:54:52.262Z,19.12
2018-09-19T19:57:21.296Z,19.06
2018-09-19T19:59:50.479Z,19.06
2018-09-19T20:02:19.833Z,19.18
2018-09-19T20:04:49.037Z,19.21
2018-09-19T20:07:17.898Z,19.17
2018-09-19T20:09:47.065Z,19.28
2018-09-19T20:12:15.909Z,19.26
2018-09-19T20:14:45.259Z,19.21
2018-09-19T20:17:14.069Z,19.24
2018-09-19T20:19:43.445Z,19.15
2018-09-19T20:22:12.708Z,19.06
2018-09-19T20:24:41.677Z,19.08
2018-09-19T20:27:11.012Z,19.04
2018-09-19T20:29:40.517Z,18.96
2018-09-19T20:32:09.488Z,18.86
2018-09-19T20:34:38.417Z,18.85
2018-09-19T20:37:07.605Z,18.74
2018-09-19T20:39:36.521Z,18.72
2018-09-19T20:42:05.482Z,18.62
2018-09-19T20:44:34.379Z,18.50
2018-09-19T20:47:03.322Z,18.47
2018-09-19T20:49:32.408Z,18.54
2018-09-19T20:52:01.486Z,18.62
2018-09-19T20:54:30.277Z,18.52
2018-09-19T20:56:59.230Z,18.40
2018-09-19T20:59:28.509Z,18.30
2018-09-19T21:01:57.548Z,18.23
2018-09-19T21:04:26.612Z,18.10
2018-09-19T21:06:55.984Z,17.98
2018-09-19T21:09:24.942Z,17.93
2018-09-19T21:11:53.902Z,17.90
2018-09-19T21:14:23.140Z,17.87
2018-09-19T21:16:52.108Z,17.87
2018-09-19T21:19:21.108Z,17.78
2018-09-19T21:21:50.130Z,17.76
2018-09-19T21:24:19.052Z,17.70
2018-09-19T21:26:48.143Z,17.64
2018-09-19T21:29:17.420Z,17.66
2018-09-19T21:31:46.276Z,17.58
2018-09-19T21:34:15.283Z,17.54
2018-09-19T21:38:13.944Z,17.51
2018-09-19T21:40:42.866Z,17.40
2018-09-19T21:43:11.687Z,17.39
2018-09-19T21:45:41.066Z,17.35
2018-09-19T21:48:10.109Z,17.33
2018-09-19T21:50:38.882Z,17.28
2018-09-19T21:53:08.781Z,17.27
2018-09-19T21:55:37.668Z,17.27
2018-09-19T21:58:06.514Z,17.37
2018-09-19T22:00:35.517Z,17.33
2018-09-19T22:03:04.649Z,17.31
2018-09-19T22:05:33.590Z,17.25
2018-09-19T22:08:02.456Z,17.31
2018-09-19T22:10:31.363Z,17.35
2018-09-19T22:13:00.192Z,17.39
2018-09-19T22:15:29.559Z,17.32
2018-09-19T22:17:58.359Z,17.29
2018-09-19T22:20:27.336Z,17.21
2018-09-19T22:22:56.641Z,17.11
2018-09-19T22:25:25.560Z,17.06
2018-09-19T22:27:54.386Z,17.10
2018-09-19T22:30:23.704Z,17.09
2018-09-19T22:32:52.569Z,17.06
2018-09-19T22:35:21.441Z,17.03
2018-09-19T22:37:50.674Z,16.97
2018-09-19T22:40:19.519Z,16.97
2018-09-19T22:42:48.490Z,16.97
2018-09-19T22:45:17.737Z,16.96
2018-09-19T22:47:46.744Z,16.93
2018-09-19T22:50:15.725Z,16.84
2018-09-19T22:52:45.112Z,16.83
2018-09-19T22:55:13.979Z,16.71
2018-09-19T22:57:42.849Z,16.72
2018-09-19T23:00:11.738Z,16.69
2018-09-19T23:02:40.636Z,16.63
2018-09-19T23:05:09.544Z,16.69
2018-09-19T23:07:38.867Z,16.66
2018-09-19T23:10:07.791Z,16.64
2018-09-19T23:12:36.665Z,16.62
2018-09-19T23:15:05.946Z,16.64
2018-09-19T23:17:34.872Z,16.62
2018-09-19T23:20:03.834Z,16.48
2018-09-19T23:23:35.778Z,16.43
2018-09-19T23:26:04.944Z,16.29
2018-09-19T23:28:33.823Z,16.23
2018-09-19T23:31:03.005Z,16.19
2018-09-19T23:33:31.793Z,16.20
2018-09-19T23:36:00.713Z,16.15
2018-09-19T23:38:29.773Z,16.15
2018-09-19T23:40:58.696Z,16.21
2018-09-19T23:43:27.625Z,16.27
2018-09-19T23:45:56.862Z,16.31
2018-09-19T23:48:25.839Z,16.22
2018-09-19T23:50:54.580Z,16.18
2018-09-19T23:53:23.521Z,16.14
2018-09-19T23:55:52.329Z,16.11
2018-09-19T23:58:21.391Z,16.10
